Pertusola — IBER — position and weather

sailwx.info

Track history (hours):
 
Tides and Currents Weather Stations Pressure Air Temp Water Temp Dewpoint Dewpoint Depression Visibility Wind Speed Wind Dir Waves Ship Positions

Pertusola

Last reported at 2016-Aug-24 20:23 UTC. Time now 2016-Aug-25 06:16 UTC.
Position N 24°08' W 018°01'.

Length 145 m; draft 6.9 m.

Type: Ship (hazmat cat A). MMSI: 247399000.

Date/timePositionNaut miles runAvg speedWind from/ knotsBaromVisibWave heightAir tempDewpointWater temp
2016-Aug-24 20:23N 24°08' W 018°01'12315.0
2016-Aug-24 12:14N 25°47' W 016°41'2815.4
2016-Aug-24 10:25N 26°09' W 016°23'1415.4
2016-Aug-24 09:32N 26°20' W 016°14'1815.3
2016-Aug-24 08:21N 26°35' W 016°02'1215.3
2016-Aug-24 07:33N 26°45' W 015°53'1615.3
2016-Aug-24 06:33N 26°57' W 015°43'3115.5
2016-Aug-24 04:33N 27°22' W 015°23'1615.8
2016-Aug-24 03:34N 27°36' W 015°14'1615.6
2016-Aug-24 02:34N 27°50' W 015°08'1413.9
2016-Aug-24 01:34N 28°04' W 015°05'1313.4
2016-Aug-24 00:33N 28°06' W 015°20'5 4.7
2016-Aug-23 23:33N 28°09' W 015°17'1514.7
2016-Aug-23 22:33N 28°10' W 014°60'1515.5
2016-Aug-23 21:33N 28°24' W 014°53'1515.4
2016-Aug-23 20:34N 28°39' W 014°48'1515.4
2016-Aug-23 19:33N 28°54' W 014°44'1515.2
2016-Aug-23 18:33N 29°09' W 014°40'4414.9
2016-Aug-23 15:33N 29°52' W 014°28'2114.8
2016-Aug-23 14:06N 30°13' W 014°22'914.8
2016-Aug-23 13:30N 30°22' W 014°20'2914.9
2016-Aug-23 11:33N 30°50' W 014°12'1614.9
2016-Aug-23 10:30N 31°05' W 014°07'34915.1
2016-Aug-22 11:23N 36°44' W 012°28'2715.0
2016-Aug-22 09:33N 37°10' W 012°19'1515.2
2016-Aug-22 08:33N 37°25' W 012°15'1515.5
2016-Aug-22 07:33N 37°40' W 012°10'1514.6
2016-Aug-22 06:33N 37°54' W 012°06'1414.0
2016-Aug-22 05:33N 38°08' W 012°02'1414.0
2016-Aug-22 04:33N 38°22' W 011°58'1414.6
2016-Aug-22 03:33N 38°36' W 011°53'1514.9
2016-Aug-22 02:33N 38°50' W 011°49'1514.7
2016-Aug-22 01:33N 39°04' W 011°44'1514.8
2016-Aug-22 00:33N 39°19' W 011°40'4615.3
2016-Aug-21 21:31N 40°04' W 011°25'3015.2
2016-Aug-21 19:33N 40°33' W 011°16'2015.2
2016-Aug-21 18:15N 40°52' W 011°10'62312.0
2016-Aug-19 14:32N 49°46' W 003°34'1514.8
2016-Aug-19 13:34N 49°54' W 003°15'1515.3
2016-Aug-19 12:34N 50°01' W 002°54'2914.2
2016-Aug-19 10:32N 50°09' W 002°10'26 7.6
2016-Aug-19 07:07N 50°16' W 001°31'812.2
2016-Aug-19 06:27N 50°18' W 001°19'1314.0
2016-Aug-19 05:31N 50°21' W 000°59'1616.0
2016-Aug-19 04:32N 50°26' W 000°35'1616.5
2016-Aug-19 03:32N 50°30' W 000°10'1616.1
2016-Aug-19 02:33N 50°34' E 000°14'1615.4
2016-Aug-19 01:33N 50°39' E 000°37'1414.2
2016-Aug-19 00:33N 50°47' E 000°55'1312.9
2016-Aug-18 23:33N 50°55' E 001°11'1212.5
2016-Aug-18 22:33N 51°03' E 001°27'1514.6
2016-Aug-18 21:33N 51°12' E 001°44'1716.9
2016-Aug-18 20:34N 51°28' E 001°56'1717.0
2016-Aug-18 19:34N 51°40' E 002°15'1616.2
2016-Aug-18 18:33N 51°52' E 002°32'1414.4
2016-Aug-18 17:33N 52°06' E 002°37'1413.8
2016-Aug-18 16:33N 52°20' E 002°38'1713.0
2016-Aug-18 15:13N 52°37' E 002°38'912.8
2016-Aug-18 14:29N 52°47' E 002°38'7514.0
2016-Aug-18 09:08N 53°58' E 003°18'1114.6
2016-Aug-18 08:24N 54°05' E 003°31'1214.5
2016-Aug-18 07:32N 54°12' E 003°48'1514.5
2016-Aug-18 06:29N 54°21' E 004°09'3014.8
2016-Aug-18 04:28N 54°39' E 004°51'1815.2
2016-Aug-18 03:18N 54°49' E 005°16'1215.3
2016-Aug-18 02:31N 54°56' E 005°33'1515.1
2016-Aug-18 01:33N 55°09' E 005°46'1515.1
2016-Aug-18 00:33N 55°21' E 005°60'1515.2
2016-Aug-17 23:33N 55°34' E 006°14'1715.2
2016-Aug-17 22:25N 55°49' E 006°30'1315.3
2016-Aug-17 21:34N 56°00' E 006°42'1515.1
2016-Aug-17 20:33N 56°13' E 006°56'1515.1
2016-Aug-17 19:33N 56°26' E 007°10'1515.0
2016-Aug-17 18:33N 56°39' E 007°24'1515.1
2016-Aug-17 17:33N 56°52' E 007°38'4514.7
2016-Aug-17 14:29N 57°30' E 008°22'1414.5
2016-Aug-17 13:33N 57°35' E 008°46'1514.6
2016-Aug-17 12:33N 57°40' E 009°12'1514.7
2016-Aug-17 11:33N 57°45' E 009°37'1514.8
2016-Aug-17 10:33N 57°49' E 010°04'1515.3
2016-Aug-17 09:33N 57°49' E 010°33'1413.8
2016-Aug-17 08:33N 57°44' E 010°56'1414.5
2016-Aug-17 07:33N 57°34' E 011°17'1414.2
2016-Aug-17 06:33N 57°22' E 011°31'1414.2
2016-Aug-17 05:33N 57°09' E 011°39'1414.3
2016-Aug-17 04:33N 56°55' E 011°48'1414.1
2016-Aug-17 03:33N 56°42' E 011°56'1714.8
2016-Aug-17 02:25N 56°25' E 012°02'1214.6
2016-Aug-17 01:34N 56°15' E 012°15'1313.4
2016-Aug-17 00:34N 56°06' E 012°34'1414.1
2016-Aug-16 23:34N 55°53' E 012°40'1312.9
2016-Aug-16 22:34N 55°40' E 012°41'1110.6
2016-Aug-16 21:33N 55°29' E 012°43'9 8.9
2016-Aug-16 20:33N 55°21' E 012°40'1211.6
2016-Aug-16 19:33N 55°16' E 012°59'1413.8
2016-Aug-16 18:34N 55°15' E 013°23'1414.0
2016-Aug-16 17:33N 55°14' E 013°47'1413.9
2016-Aug-16 16:34N 55°13' E 014°12'1514.5
2016-Aug-16 15:34N 55°23' E 014°30'1515.3
2016-Aug-16 14:34N 55°32' E 014°52'1515.3
2016-Aug-16 13:34N 55°41' E 015°15'  
Track history (hours):
 
Tides and Currents Weather Stations Pressure Air Temp Water Temp Dewpoint Dewpoint Depression Visibility Wind Speed Wind Dir Waves Ship Positions

Pertusola

Last reported at 2016-Aug-24 20:23 UTC. Time now 2016-Aug-25 06:16 UTC.
Position N 24°08' W 018°01'.

Length 145 m; draft 6.9 m.

Type: Ship (hazmat cat A). MMSI: 247399000.

Date/timePositionNaut miles runAvg speedWind from/ knotsBaromVisibWave heightAir tempDewpointWater temp
2016-Aug-24 20:23N 24°08' W 018°01'12315.0
2016-Aug-24 12:14N 25°47' W 016°41'2815.4
2016-Aug-24 10:25N 26°09' W 016°23'1415.4
2016-Aug-24 09:32N 26°20' W 016°14'1815.3
2016-Aug-24 08:21N 26°35' W 016°02'1215.3
2016-Aug-24 07:33N 26°45' W 015°53'1615.3
2016-Aug-24 06:33N 26°57' W 015°43'3115.5
2016-Aug-24 04:33N 27°22' W 015°23'1615.8
2016-Aug-24 03:34N 27°36' W 015°14'1615.6
2016-Aug-24 02:34N 27°50' W 015°08'1413.9
2016-Aug-24 01:34N 28°04' W 015°05'1313.4
2016-Aug-24 00:33N 28°06' W 015°20'5 4.7
2016-Aug-23 23:33N 28°09' W 015°17'1514.7
2016-Aug-23 22:33N 28°10' W 014°60'1515.5
2016-Aug-23 21:33N 28°24' W 014°53'1515.4
2016-Aug-23 20:34N 28°39' W 014°48'1515.4
2016-Aug-23 19:33N 28°54' W 014°44'1515.2
2016-Aug-23 18:33N 29°09' W 014°40'4414.9
2016-Aug-23 15:33N 29°52' W 014°28'2114.8
2016-Aug-23 14:06N 30°13' W 014°22'914.8
2016-Aug-23 13:30N 30°22' W 014°20'2914.9
2016-Aug-23 11:33N 30°50' W 014°12'1614.9
2016-Aug-23 10:30N 31°05' W 014°07'34915.1
2016-Aug-22 11:23N 36°44' W 012°28'2715.0
2016-Aug-22 09:33N 37°10' W 012°19'1515.2
2016-Aug-22 08:33N 37°25' W 012°15'1515.5
2016-Aug-22 07:33N 37°40' W 012°10'1514.6
2016-Aug-22 06:33N 37°54' W 012°06'1414.0
2016-Aug-22 05:33N 38°08' W 012°02'1414.0
2016-Aug-22 04:33N 38°22' W 011°58'1414.6
2016-Aug-22 03:33N 38°36' W 011°53'1514.9
2016-Aug-22 02:33N 38°50' W 011°49'1514.7
2016-Aug-22 01:33N 39°04' W 011°44'1514.8
2016-Aug-22 00:33N 39°19' W 011°40'4615.3
2016-Aug-21 21:31N 40°04' W 011°25'3015.2
2016-Aug-21 19:33N 40°33' W 011°16'2015.2
2016-Aug-21 18:15N 40°52' W 011°10'62312.0
2016-Aug-19 14:32N 49°46' W 003°34'1514.8
2016-Aug-19 13:34N 49°54' W 003°15'1515.3
2016-Aug-19 12:34N 50°01' W 002°54'2914.2
2016-Aug-19 10:32N 50°09' W 002°10'26 7.6
2016-Aug-19 07:07N 50°16' W 001°31'812.2
2016-Aug-19 06:27N 50°18' W 001°19'1314.0
2016-Aug-19 05:31N 50°21' W 000°59'1616.0
2016-Aug-19 04:32N 50°26' W 000°35'1616.5
2016-Aug-19 03:32N 50°30' W 000°10'1616.1
2016-Aug-19 02:33N 50°34' E 000°14'1615.4
2016-Aug-19 01:33N 50°39' E 000°37'1414.2
2016-Aug-19 00:33N 50°47' E 000°55'1312.9
2016-Aug-18 23:33N 50°55' E 001°11'1212.5
2016-Aug-18 22:33N 51°03' E 001°27'1514.6
2016-Aug-18 21:33N 51°12' E 001°44'1716.9
2016-Aug-18 20:34N 51°28' E 001°56'1717.0
2016-Aug-18 19:34N 51°40' E 002°15'1616.2
2016-Aug-18 18:33N 51°52' E 002°32'1414.4
2016-Aug-18 17:33N 52°06' E 002°37'1413.8
2016-Aug-18 16:33N 52°20' E 002°38'1713.0
2016-Aug-18 15:13N 52°37' E 002°38'912.8
2016-Aug-18 14:29N 52°47' E 002°38'7514.0
2016-Aug-18 09:08N 53°58' E 003°18'1114.6
2016-Aug-18 08:24N 54°05' E 003°31'1214.5
2016-Aug-18 07:32N 54°12' E 003°48'1514.5
2016-Aug-18 06:29N 54°21' E 004°09'3014.8
2016-Aug-18 04:28N 54°39' E 004°51'1815.2
2016-Aug-18 03:18N 54°49' E 005°16'1215.3
2016-Aug-18 02:31N 54°56' E 005°33'1515.1
2016-Aug-18 01:33N 55°09' E 005°46'1515.1
2016-Aug-18 00:33N 55°21' E 005°60'1515.2
2016-Aug-17 23:33N 55°34' E 006°14'1715.2
2016-Aug-17 22:25N 55°49' E 006°30'1315.3
2016-Aug-17 21:34N 56°00' E 006°42'1515.1
2016-Aug-17 20:33N 56°13' E 006°56'1515.1
2016-Aug-17 19:33N 56°26' E 007°10'1515.0
2016-Aug-17 18:33N 56°39' E 007°24'1515.1
2016-Aug-17 17:33N 56°52' E 007°38'4514.7
2016-Aug-17 14:29N 57°30' E 008°22'1414.5
2016-Aug-17 13:33N 57°35' E 008°46'1514.6
2016-Aug-17 12:33N 57°40' E 009°12'1514.7
2016-Aug-17 11:33N 57°45' E 009°37'1514.8
2016-Aug-17 10:33N 57°49' E 010°04'1515.3
2016-Aug-17 09:33N 57°49' E 010°33'1413.8
2016-Aug-17 08:33N 57°44' E 010°56'1414.5
2016-Aug-17 07:33N 57°34' E 011°17'1414.2
2016-Aug-17 06:33N 57°22' E 011°31'1414.2
2016-Aug-17 05:33N 57°09' E 011°39'1414.3
2016-Aug-17 04:33N 56°55' E 011°48'1414.1
2016-Aug-17 03:33N 56°42' E 011°56'1714.8
2016-Aug-17 02:25N 56°25' E 012°02'1214.6
2016-Aug-17 01:34N 56°15' E 012°15'1313.4
2016-Aug-17 00:34N 56°06' E 012°34'1414.1
2016-Aug-16 23:34N 55°53' E 012°40'1312.9
2016-Aug-16 22:34N 55°40' E 012°41'1110.6
2016-Aug-16 21:33N 55°29' E 012°43'9 8.9
2016-Aug-16 20:33N 55°21' E 012°40'1211.6
2016-Aug-16 19:33N 55°16' E 012°59'1413.8
2016-Aug-16 18:34N 55°15' E 013°23'1414.0
2016-Aug-16 17:33N 55°14' E 013°47'1413.9
2016-Aug-16 16:34N 55°13' E 014°12'1514.5
2016-Aug-16 15:34N 55°23' E 014°30'1515.3
2016-Aug-16 14:34N 55°32' E 014°52'1515.3
2016-Aug-16 13:34N 55°41' E 015°15'  

Dump ship's entire track history